createdAt,value
2022-12-20T00:01:59.393Z,70.83
2022-12-20T00:04:29.389Z,70.96
2022-12-20T00:06:59.020Z,70.88
2022-12-20T00:09:27.461Z,71.24
2022-12-20T00:11:55.857Z,71.11
2022-12-20T00:14:24.459Z,71.11
2022-12-20T00:16:53.074Z,71.07
2022-12-20T00:19:21.894Z,71.16
2022-12-20T00:21:52.854Z,71.08
2022-12-20T00:24:26.103Z,71.26
2022-12-20T00:26:56.082Z,71.23
2022-12-20T00:29:24.455Z,71.14
2022-12-20T00:31:53.475Z,71.08
2022-12-20T00:34:22.022Z,71.22
2022-12-20T00:36:52.278Z,71.20
2022-12-20T00:39:20.778Z,71.23
2022-12-20T00:41:49.664Z,71.22
2022-12-20T00:44:18.558Z,71.15
2022-12-20T00:46:47.534Z,71.38
2022-12-20T00:49:17.008Z,71.38
2022-12-20T00:51:45.472Z,71.38
2022-12-20T00:54:16.026Z,71.33
2022-12-20T00:56:44.506Z,71.43
2022-12-20T00:59:13.557Z,71.33
2022-12-20T01:01:42.217Z,71.30
2022-12-20T01:04:11.282Z,71.37
2022-12-20T01:06:39.798Z,71.23
2022-12-20T01:09:08.271Z,71.36
2022-12-20T01:11:40.036Z,71.39
2022-12-20T01:14:12.441Z,71.41
2022-12-20T01:16:43.085Z,71.55
2022-12-20T01:19:14.783Z,71.16
2022-12-20T01:21:45.251Z,71.25
2022-12-20T01:24:15.069Z,71.22
2022-12-20T01:26:45.086Z,71.29
2022-12-20T01:29:16.079Z,71.21
2022-12-20T01:31:45.431Z,71.11
2022-12-20T01:34:14.213Z,71.19
2022-12-20T01:36:42.850Z,71.10
2022-12-20T01:39:14.737Z,71.07
2022-12-20T01:41:47.087Z,71.17
2022-12-20T01:44:52.770Z,71.28
2022-12-20T01:47:22.541Z,71.21
2022-12-20T01:49:55.170Z,71.18
2022-12-20T01:52:33.847Z,71.11
2022-12-20T01:55:08.113Z,70.97
2022-12-20T01:57:44.776Z,71.05
2022-12-20T02:00:14.231Z,71.01
2022-12-20T02:02:45.335Z,70.93
2022-12-20T02:05:14.765Z,70.96
2022-12-20T02:07:50.173Z,71.01
2022-12-20T02:10:20.994Z,71.00
2022-12-20T02:12:59.037Z,70.84
2022-12-20T02:15:38.247Z,70.77
2022-12-20T02:18:19.734Z,70.83
2022-12-20T02:21:21.906Z,71.01
2022-12-20T02:24:24.215Z,71.03
2022-12-20T02:27:20.429Z,70.98
2022-12-20T02:30:15.298Z,70.98
2022-12-20T02:32:51.897Z,71.07
2022-12-20T02:35:24.173Z,71.00
2022-12-20T02:37:55.247Z,71.01
2022-12-20T02:40:27.451Z,71.02
2022-12-20T02:43:00.314Z,70.92
2022-12-20T02:45:38.145Z,71.04
2022-12-20T02:48:11.008Z,71.02
2022-12-20T02:50:46.349Z,71.14
2022-12-20T02:53:18.910Z,70.98
2022-12-20T02:55:52.722Z,71.12
2022-12-20T02:58:30.199Z,71.04
2022-12-20T03:01:04.848Z,71.13
2022-12-20T03:03:36.264Z,71.28
2022-12-20T03:06:09.723Z,71.18
2022-12-20T03:08:39.165Z,71.27
2022-12-20T03:11:07.850Z,71.30
2022-12-20T03:13:37.008Z,71.20
2022-12-20T03:16:11.734Z,71.23
2022-12-20T03:18:41.133Z,71.24
2022-12-20T03:21:09.806Z,71.41
2022-12-20T03:23:38.258Z,71.35
2022-12-20T03:26:08.321Z,71.79
2022-12-20T03:28:42.465Z,71.85
2022-12-20T03:31:15.850Z,71.67
2022-12-20T03:33:49.900Z,71.72
2022-12-20T03:36:23.379Z,71.67
2022-12-20T03:38:57.636Z,71.92
2022-12-20T03:41:28.246Z,71.61
2022-12-20T03:43:57.430Z,71.75
2022-12-20T03:46:29.132Z,71.77
2022-12-20T03:48:58.481Z,71.85
2022-12-20T03:51:26.994Z,71.88
2022-12-20T03:53:56.104Z,72.03
2022-12-20T03:56:31.159Z,72.07
2022-12-20T03:59:00.335Z,72.00
2022-12-20T04:01:30.630Z,72.03
2022-12-20T04:03:59.505Z,71.98
2022-12-20T04:06:29.287Z,72.03
2022-12-20T04:08:58.119Z,72.08
2022-12-20T04:11:31.618Z,72.25
2022-12-20T04:14:18.047Z,72.07
2022-12-20T04:16:48.737Z,72.29
2022-12-20T04:19:17.900Z,72.37
2022-12-20T04:21:49.218Z,72.27
2022-12-20T04:24:19.838Z,72.21
2022-12-20T04:27:12.817Z,72.29
2022-12-20T04:29:41.363Z,71.98
2022-12-20T04:32:15.010Z,71.99
2022-12-20T04:34:43.753Z,72.09
2022-12-20T04:37:12.730Z,71.98
2022-12-20T04:39:56.344Z,72.12
2022-12-20T04:42:28.281Z,72.03
2022-12-20T04:44:58.262Z,72.17
2022-12-20T04:47:31.370Z,72.28
2022-12-20T04:50:00.936Z,72.22
2022-12-20T04:52:53.195Z,72.44
2022-12-20T04:55:22.007Z,72.13
2022-12-20T04:57:51.234Z,72.52
2022-12-20T05:00:21.225Z,72.47
2022-12-20T05:02:58.993Z,72.30
2022-12-20T05:05:28.648Z,72.30
2022-12-20T05:07:58.958Z,72.45
2022-12-20T05:10:30.395Z,72.61
2022-12-20T05:13:08.862Z,72.65
2022-12-20T05:15:42.867Z,72.98
2022-12-20T05:18:14.857Z,72.99
2022-12-20T05:21:12.940Z,72.96
2022-12-20T05:23:59.683Z,73.18
2022-12-20T05:26:32.433Z,73.10
2022-12-20T05:29:02.981Z,72.94
2022-12-20T05:31:31.886Z,73.12
2022-12-20T05:34:02.758Z,72.98
2022-12-20T05:36:34.574Z,72.95
2022-12-20T05:39:06.555Z,73.12
2022-12-20T05:41:38.623Z,73.12
2022-12-20T05:44:08.023Z,73.36
2022-12-20T05:46:39.526Z,73.21
2022-12-20T05:49:14.838Z,73.24
2022-12-20T05:51:43.848Z,73.08
2022-12-20T05:54:25.502Z,73.05
2022-12-20T05:57:05.938Z,72.99
2022-12-20T05:59:38.825Z,72.96
2022-12-20T06:02:12.295Z,72.76
2022-12-20T06:04:43.238Z,72.90
2022-12-20T06:07:20.568Z,72.94
2022-12-20T06:09:52.856Z,73.08
2022-12-20T06:12:26.492Z,73.12
2022-12-20T06:14:55.296Z,73.17
2022-12-20T06:17:24.088Z,73.15
2022-12-20T06:19:55.142Z,73.24
2022-12-20T06:22:24.602Z,73.26
2022-12-20T06:24:57.384Z,73.42
2022-12-20T06:27:29.412Z,73.30
2022-12-20T06:30:09.639Z,73.40
2022-12-20T06:32:54.421Z,73.57
2022-12-20T06:35:24.692Z,73.57
2022-12-20T06:37:56.636Z,73.64
2022-12-20T06:40:25.824Z,73.53
2022-12-20T06:42:54.475Z,73.59
2022-12-20T06:45:25.898Z,73.42
2022-12-20T06:47:55.377Z,73.51
2022-12-20T06:50:27.170Z,73.38
2022-12-20T06:52:55.743Z,73.22
2022-12-20T06:55:26.386Z,73.38
2022-12-20T06:57:55.373Z,73.18
2022-12-20T07:00:24.372Z,73.13
2022-12-20T07:02:53.138Z,73.11
2022-12-20T07:05:21.676Z,73.07
2022-12-20T07:07:51.572Z,73.26
2022-12-20T07:10:20.024Z,73.25
2022-12-20T07:12:48.792Z,73.40
2022-12-20T07:15:18.372Z,73.53
2022-12-20T07:17:47.208Z,73.51
2022-12-20T07:20:16.980Z,73.58
2022-12-20T07:22:45.398Z,73.61
2022-12-20T07:25:16.265Z,73.73
2022-12-20T07:27:47.389Z,73.72
2022-12-20T07:30:16.083Z,73.64
2022-12-20T07:32:44.874Z,73.70
2022-12-20T07:35:14.380Z,73.64
2022-12-20T07:37:43.382Z,73.44
2022-12-20T07:40:14.707Z,73.66
2022-12-20T07:42:48.911Z,73.60
2022-12-20T07:45:18.222Z,73.77
2022-12-20T07:47:46.587Z,73.81
2022-12-20T07:50:15.489Z,73.91
2022-12-20T07:52:47.003Z,73.84
2022-12-20T07:55:16.055Z,73.72
2022-12-20T07:57:50.061Z,73.79
2022-12-20T08:00:19.700Z,73.69
2022-12-20T08:02:52.102Z,73.52
2022-12-20T08:05:21.819Z,73.55
2022-12-20T08:07:56.830Z,73.26
2022-12-20T08:10:28.830Z,73.32
2022-12-20T08:12:59.560Z,73.36
2022-12-20T08:15:30.148Z,73.27
2022-12-20T08:17:58.687Z,73.26
2022-12-20T08:20:27.638Z,73.12
2022-12-20T08:22:56.046Z,73.06
2022-12-20T08:25:25.244Z,73.09
2022-12-20T08:27:54.044Z,73.06
2022-12-20T08:30:23.862Z,72.83
2022-12-20T08:32:52.864Z,72.87
2022-12-20T08:35:21.424Z,72.46
2022-12-20T08:37:52.983Z,72.38
2022-12-20T08:40:21.838Z,72.40
2022-12-20T08:42:50.518Z,72.36
2022-12-20T08:45:20.119Z,72.19
2022-12-20T08:47:49.938Z,72.23
2022-12-20T08:50:19.511Z,72.18
2022-12-20T08:52:48.435Z,72.08
2022-12-20T08:55:17.362Z,72.20
2022-12-20T08:57:45.752Z,72.19
2022-12-20T09:00:16.038Z,72.01
2022-12-20T09:02:45.013Z,71.77
2022-12-20T09:05:15.289Z,71.92
2022-12-20T09:07:43.717Z,71.75
2022-12-20T09:10:13.547Z,71.71
2022-12-20T09:12:42.164Z,71.85
2022-12-20T09:15:11.945Z,71.77
2022-12-20T09:17:40.784Z,71.82
2022-12-20T09:20:10.255Z,71.87
2022-12-20T09:22:40.295Z,71.88
2022-12-20T09:25:09.689Z,72.05
2022-12-20T09:27:38.111Z,71.95
2022-12-20T09:30:07.760Z,71.97
2022-12-20T09:32:36.313Z,71.65
2022-12-20T09:35:05.133Z,71.87
2022-12-20T09:37:34.067Z,71.85
2022-12-20T09:40:04.431Z,71.62
2022-12-20T09:42:33.627Z,71.74
2022-12-20T09:45:07.735Z,71.86
2022-12-20T09:47:37.932Z,71.59
2022-12-20T09:50:08.119Z,71.67
2022-12-20T09:52:56.990Z,71.43
2022-12-20T09:55:36.024Z,71.22
2022-12-20T09:58:22.632Z,71.28
2022-12-20T10:00:54.253Z,71.17
2022-12-20T10:03:27.644Z,71.09
2022-12-20T10:05:57.992Z,71.15
2022-12-20T10:08:51.583Z,70.96
2022-12-20T10:11:43.492Z,70.96
2022-12-20T10:14:40.690Z,70.90
2022-12-20T10:17:15.311Z,70.80
2022-12-20T10:20:01.794Z,70.75
2022-12-20T10:22:37.536Z,70.66
2022-12-20T10:25:18.240Z,70.54
2022-12-20T10:27:50.960Z,70.48
2022-12-20T10:30:22.089Z,70.60
2022-12-20T10:32:52.619Z,70.45
2022-12-20T10:35:25.564Z,70.53
2022-12-20T10:38:07.580Z,70.47
2022-12-20T10:41:18.923Z,69.94
2022-12-20T10:43:31.733Z,69.88
2022-12-20T10:46:02.865Z,69.89
2022-12-20T10:48:34.470Z,69.76
2022-12-20T10:51:08.361Z,69.80
2022-12-20T10:53:52.494Z,69.62
2022-12-20T10:56:23.447Z,69.59
2022-12-20T10:58:59.888Z,69.54
2022-12-20T11:01:32.111Z,69.53
2022-12-20T11:04:03.031Z,69.61
2022-12-20T11:06:43.170Z,69.47
2022-12-20T11:09:28.052Z,69.54
2022-12-20T11:12:07.883Z,69.53
2022-12-20T11:14:40.173Z,69.43
2022-12-20T11:17:24.337Z,69.63
2022-12-20T11:20:02.506Z,69.75
2022-12-20T11:22:44.183Z,69.67
2022-12-20T11:25:35.396Z,69.64
2022-12-20T11:28:19.473Z,69.82
2022-12-20T11:30:58.407Z,69.87
2022-12-20T11:33:59.569Z,69.90
2022-12-20T11:36:38.471Z,69.73
2022-12-20T11:39:16.963Z,69.74
2022-12-20T11:41:56.633Z,69.67
2022-12-20T11:44:34.293Z,69.60
2022-12-20T11:47:30.313Z,69.59
2022-12-20T11:50:13.587Z,69.70
2022-12-20T11:52:49.495Z,69.59
2022-12-20T11:55:23.165Z,69.53
2022-12-20T12:00:55.261Z,69.37
2022-12-20T12:03:30.168Z,69.31
2022-12-20T12:06:03.493Z,69.25
2022-12-20T12:08:41.298Z,69.30
2022-12-20T12:11:55.810Z,69.35
2022-12-20T12:14:07.442Z,69.41
2022-12-20T12:16:40.321Z,69.55
2022-12-20T12:19:14.026Z,69.43
2022-12-20T12:21:47.983Z,69.51
2022-12-20T12:24:25.116Z,69.40
2022-12-20T12:26:55.275Z,69.41
2022-12-20T12:29:24.179Z,69.50
2022-12-20T12:31:58.298Z,69.51
2022-12-20T12:34:52.835Z,69.48
2022-12-20T12:37:56.432Z,69.48
2022-12-20T12:40:59.772Z,69.56
2022-12-20T12:43:48.181Z,69.64
2022-12-20T12:46:20.954Z,69.68
2022-12-20T12:48:56.391Z,69.67
2022-12-20T12:51:32.570Z,69.68
2022-12-20T12:54:15.262Z,69.56
2022-12-20T12:56:47.697Z,69.67
2022-12-20T12:59:26.102Z,69.83
2022-12-20T13:01:57.345Z,69.91
2022-12-20T13:04:29.451Z,69.84
2022-12-20T13:07:03.161Z,69.74
2022-12-20T13:09:52.632Z,69.79
2022-12-20T13:12:58.750Z,69.73
2022-12-20T13:15:53.661Z,69.78
2022-12-20T13:18:29.314Z,70.05
2022-12-20T13:21:37.051Z,69.98
2022-12-20T13:24:45.115Z,70.09
2022-12-20T13:27:22.839Z,70.03
2022-12-20T13:30:02.475Z,70.12
2022-12-20T13:33:25.585Z,70.11
2022-12-20T13:36:30.073Z,70.01
2022-12-20T13:39:01.525Z,70.23
2022-12-20T13:41:36.032Z,70.25
2022-12-20T13:44:20.825Z,70.19
2022-12-20T13:46:53.432Z,70.25
2022-12-20T13:49:27.097Z,70.32
2022-12-20T13:52:19.119Z,70.38
2022-12-20T13:54:50.355Z,70.22
2022-12-20T13:57:25.773Z,70.58
2022-12-20T14:00:05.416Z,70.40
2022-12-20T14:02:41.619Z,70.54
2022-12-20T14:05:17.743Z,70.64
2022-12-20T14:07:49.633Z,70.72
2022-12-20T14:10:21.135Z,70.70
2022-12-20T14:12:54.844Z,70.92
2022-12-20T14:15:25.739Z,71.04
2022-12-20T14:17:54.448Z,70.81
2022-12-20T14:20:26.510Z,71.00
2022-12-20T14:23:04.527Z,71.01
2022-12-20T14:25:42.317Z,71.07
2022-12-20T14:28:27.024Z,71.25
2022-12-20T14:30:57.165Z,71.13
2022-12-20T14:33:36.746Z,71.27
2022-12-20T14:36:10.034Z,71.36
2022-12-20T14:38:41.441Z,71.36
2022-12-20T14:41:39.185Z,71.46
2022-12-20T14:44:19.298Z,71.43
2022-12-20T14:46:52.603Z,71.37
2022-12-20T14:49:27.326Z,71.56
2022-12-20T14:52:08.731Z,71.53
2022-12-20T14:57:41.405Z,71.70
2022-12-20T15:00:21.272Z,71.71
2022-12-20T15:02:54.394Z,71.70
2022-12-20T15:05:45.405Z,71.77
2022-12-20T15:08:16.284Z,71.88
2022-12-20T15:10:50.532Z,72.06
2022-12-20T15:13:20.926Z,72.17
2022-12-20T15:15:50.754Z,72.10
2022-12-20T15:18:22.406Z,72.14
2022-12-20T15:21:01.343Z,72.16
2022-12-20T15:23:30.555Z,72.33
2022-12-20T15:25:59.489Z,72.38
2022-12-20T15:28:28.348Z,72.35
2022-12-20T15:30:58.566Z,72.61
2022-12-20T15:33:28.975Z,72.56
2022-12-20T15:35:58.579Z,72.46
2022-12-20T15:39:03.606Z,72.56
2022-12-20T15:41:21.814Z,72.59
2022-12-20T15:43:53.543Z,72.48
2022-12-20T15:46:24.130Z,72.40
2022-12-20T15:48:52.730Z,72.38
2022-12-20T15:51:29.038Z,72.34
2022-12-20T15:53:57.906Z,72.29
2022-12-20T15:56:28.746Z,72.44
2022-12-20T15:58:58.813Z,72.33
2022-12-20T16:01:39.979Z,72.38
2022-12-20T16:04:16.032Z,72.56
2022-12-20T16:06:45.293Z,72.48
2022-12-20T16:09:14.203Z,72.51
2022-12-20T16:11:43.402Z,72.49
2022-12-20T16:14:16.822Z,72.55
2022-12-20T16:16:48.276Z,72.52
2022-12-20T16:19:17.290Z,72.53
2022-12-20T16:21:49.277Z,72.61
2022-12-20T16:24:19.319Z,72.74
2022-12-20T16:26:49.629Z,72.76
2022-12-20T16:29:18.000Z,72.57
2022-12-20T16:31:48.622Z,72.57
2022-12-20T16:34:18.410Z,72.56
2022-12-20T16:36:47.712Z,72.62
2022-12-20T16:39:16.457Z,72.60
2022-12-20T16:41:44.930Z,72.66
2022-12-20T16:44:15.819Z,72.74
2022-12-20T16:46:45.980Z,72.67
2022-12-20T16:49:20.483Z,72.78
2022-12-20T16:51:50.751Z,72.68
2022-12-20T16:54:21.741Z,72.86
2022-12-20T16:56:55.268Z,72.90
2022-12-20T16:59:25.645Z,72.85
2022-12-20T17:01:56.840Z,73.08
2022-12-20T17:04:28.074Z,72.88
2022-12-20T17:06:56.564Z,72.85
2022-12-20T17:09:25.338Z,73.02
2022-12-20T17:11:54.044Z,72.86
2022-12-20T17:14:22.618Z,73.04
2022-12-20T17:16:51.520Z,73.15
2022-12-20T17:19:20.240Z,73.07
2022-12-20T17:24:36.990Z,73.02
2022-12-20T17:27:05.860Z,73.05
2022-12-20T17:29:35.444Z,73.01
2022-12-20T17:32:04.694Z,73.13
2022-12-20T17:34:33.062Z,73.09
2022-12-20T17:37:03.642Z,73.59
2022-12-20T17:39:31.984Z,74.05
2022-12-20T17:42:01.504Z,73.79
2022-12-20T17:44:30.284Z,73.53
2022-12-20T17:46:59.136Z,73.36
2022-12-20T17:49:27.488Z,73.26
2022-12-20T17:51:57.236Z,73.20
2022-12-20T17:54:34.937Z,72.94
2022-12-20T17:57:12.875Z,72.93
2022-12-20T17:59:41.369Z,72.95
2022-12-20T18:02:21.975Z,72.64
2022-12-20T18:04:51.260Z,72.79
2022-12-20T18:07:20.415Z,72.82
2022-12-20T18:09:50.752Z,72.75
2022-12-20T18:12:19.351Z,72.40
2022-12-20T18:14:49.765Z,72.13
2022-12-20T18:17:18.107Z,72.03
2022-12-20T18:19:47.327Z,72.12
2022-12-20T18:22:16.048Z,71.93
2022-12-20T18:24:44.440Z,71.92
2022-12-20T18:27:15.125Z,71.79
2022-12-20T18:29:43.492Z,71.78
2022-12-20T18:32:13.353Z,71.79
2022-12-20T18:34:41.794Z,71.59
2022-12-20T18:37:10.569Z,71.67
2022-12-20T18:39:39.403Z,71.67
2022-12-20T18:42:08.208Z,71.51
2022-12-20T18:44:38.841Z,71.85
2022-12-20T18:47:07.657Z,72.03
2022-12-20T18:49:37.913Z,71.78
2022-12-20T18:52:06.903Z,71.86
2022-12-20T18:54:35.241Z,71.67
2022-12-20T18:57:06.562Z,71.78
2022-12-20T18:59:35.710Z,71.67
2022-12-20T19:02:05.687Z,71.61
2022-12-20T19:04:34.866Z,71.77
2022-12-20T19:07:03.212Z,71.91
2022-12-20T19:09:31.629Z,71.75
2022-12-20T19:11:59.965Z,71.77
2022-12-20T19:14:29.214Z,71.79
2022-12-20T19:16:57.966Z,71.72
2022-12-20T19:19:28.299Z,71.61
2022-12-20T19:21:57.106Z,71.44
2022-12-20T19:24:25.747Z,71.35
2022-12-20T19:26:55.222Z,71.34
2022-12-20T19:29:23.878Z,71.31
2022-12-20T19:31:52.657Z,71.34
2022-12-20T19:34:21.139Z,71.40
2022-12-20T19:36:51.820Z,71.42
2022-12-20T19:39:23.701Z,71.17
2022-12-20T19:42:22.376Z,71.32
2022-12-20T19:44:41.609Z,71.24
2022-12-20T19:47:10.006Z,71.30
2022-12-20T19:49:39.277Z,71.18
2022-12-20T19:52:09.492Z,71.28
2022-12-20T19:54:39.723Z,71.04
2022-12-20T19:57:09.066Z,71.06
2022-12-20T19:59:37.453Z,71.26
2022-12-20T20:02:06.932Z,71.27
2022-12-20T20:04:35.658Z,71.30
2022-12-20T20:07:05.204Z,71.52
2022-12-20T20:09:35.103Z,71.73
2022-12-20T20:12:04.776Z,71.67
2022-12-20T20:14:33.485Z,71.71
2022-12-20T20:17:01.874Z,71.94
2022-12-20T20:19:30.634Z,71.96
2022-12-20T20:21:59.240Z,71.90
2022-12-20T20:24:27.930Z,71.83
2022-12-20T20:26:58.549Z,71.94
2022-12-20T20:29:27.357Z,71.95
2022-12-20T20:31:55.817Z,72.17
2022-12-20T20:34:24.708Z,72.26
2022-12-20T20:36:53.080Z,72.34
2022-12-20T20:39:21.953Z,72.49
2022-12-20T20:41:50.365Z,72.45
2022-12-20T20:44:21.275Z,72.57
2022-12-20T20:46:49.710Z,72.73
2022-12-20T20:49:20.140Z,72.84
2022-12-20T20:51:48.861Z,73.10
2022-12-20T20:54:17.342Z,73.13
2022-12-20T20:56:46.203Z,73.20
2022-12-20T20:59:17.856Z,73.17
2022-12-20T21:01:48.687Z,73.21
2022-12-20T21:04:17.253Z,73.10
2022-12-20T21:06:46.456Z,72.84
2022-12-20T21:09:15.453Z,72.76
2022-12-20T21:11:43.932Z,72.50
2022-12-20T21:14:13.539Z,72.49
2022-12-20T21:16:42.349Z,72.34
2022-12-20T21:19:12.920Z,72.28
2022-12-20T21:21:41.328Z,72.39
2022-12-20T21:24:09.827Z,72.41
2022-12-20T21:26:38.840Z,72.62
2022-12-20T21:29:07.304Z,72.71
2022-12-20T21:31:36.407Z,72.72
2022-12-20T21:34:04.940Z,72.86
2022-12-20T21:36:36.439Z,72.73
2022-12-20T21:39:05.211Z,72.84
2022-12-20T21:41:34.109Z,72.99
2022-12-20T21:44:02.495Z,73.05
2022-12-20T21:46:32.722Z,72.81
2022-12-20T21:49:01.300Z,72.73
2022-12-20T21:51:30.917Z,72.57
2022-12-20T21:54:02.015Z,72.47
2022-12-20T21:56:32.686Z,72.46
2022-12-20T21:59:02.912Z,72.32
2022-12-20T22:01:32.292Z,72.25
2022-12-20T22:04:03.081Z,72.12
2022-12-20T22:06:32.174Z,72.14
2022-12-20T22:09:06.283Z,72.17
2022-12-20T22:11:36.274Z,72.05
2022-12-20T22:14:05.119Z,72.04
2022-12-20T22:16:35.181Z,72.09
2022-12-20T22:19:03.984Z,72.16
2022-12-20T22:21:35.545Z,72.25
2022-12-20T22:24:05.612Z,72.35
2022-12-20T22:26:36.167Z,72.25
2022-12-20T22:29:07.102Z,72.21
2022-12-20T22:31:36.647Z,72.27
2022-12-20T22:34:06.224Z,72.35
2022-12-20T22:36:34.631Z,72.46
2022-12-20T22:39:05.295Z,72.70
2022-12-20T22:41:35.244Z,72.93
2022-12-20T22:44:03.757Z,72.76
2022-12-20T22:46:33.009Z,72.77
2022-12-20T22:49:01.573Z,72.68
2022-12-20T22:51:33.524Z,72.74
2022-12-20T22:54:02.885Z,72.91
2022-12-20T22:56:32.569Z,72.53
2022-12-20T22:59:01.381Z,72.57
2022-12-20T23:01:29.884Z,72.30
2022-12-20T23:03:58.939Z,72.44
2022-12-20T23:06:27.716Z,72.48
2022-12-20T23:08:56.202Z,72.58
2022-12-20T23:11:45.219Z,72.76
2022-12-20T23:14:35.122Z,72.67
2022-12-20T23:17:05.797Z,72.55
2022-12-20T23:19:55.316Z,72.52
2022-12-20T23:22:39.517Z,72.58
2022-12-20T23:25:10.953Z,72.75
2022-12-20T23:27:41.336Z,72.76
2022-12-20T23:30:14.516Z,73.11
2022-12-20T23:32:44.393Z,73.09
2022-12-20T23:35:15.658Z,73.25
2022-12-20T23:37:45.453Z,73.04
2022-12-20T23:40:16.811Z,72.98
2022-12-20T23:42:45.941Z,73.40
2022-12-20T23:45:15.877Z,73.56
2022-12-20T23:47:44.801Z,73.54
2022-12-20T23:50:13.458Z,73.73
2022-12-20T23:52:42.846Z,73.67
2022-12-20T23:55:11.240Z,73.77
2022-12-20T23:57:40.369Z,73.58
